createdAt,value
2023-04-09T00:01:52.096Z,98567.03
2023-04-09T00:04:25.221Z,98575.59
2023-04-09T00:06:59.601Z,98570.91
2023-04-09T00:09:32.959Z,98574.84
2023-04-09T00:12:06.258Z,98567.25
2023-04-09T00:14:39.297Z,98566.00
2023-04-09T00:17:12.278Z,98565.50
2023-04-09T00:19:45.454Z,98568.78
2023-04-09T00:22:19.811Z,98568.94
2023-04-09T00:24:52.888Z,98564.88
2023-04-09T00:27:25.941Z,98568.41
2023-04-09T00:29:59.000Z,98566.00
2023-04-09T00:32:32.156Z,98568.00
2023-04-09T00:35:05.892Z,98574.88
2023-04-09T00:37:40.415Z,98573.09
2023-04-09T00:40:13.817Z,98569.78
2023-04-09T00:42:46.912Z,98571.56
2023-04-09T00:45:19.953Z,98571.56
2023-04-09T00:47:53.449Z,98570.28
2023-04-09T00:50:26.633Z,98571.56
2023-04-09T00:53:01.289Z,98573.63
2023-04-09T00:55:35.200Z,98578.31
2023-04-09T00:58:08.427Z,98575.28
2023-04-09T01:00:41.648Z,98581.78
2023-04-09T01:03:15.245Z,98575.69
2023-04-09T01:05:55.780Z,98576.56
2023-04-09T01:08:40.358Z,98574.66
2023-04-09T01:11:29.137Z,98577.97
2023-04-09T01:14:12.327Z,98575.44
2023-04-09T01:16:49.359Z,98573.88
2023-04-09T01:19:38.592Z,98578.84
2023-04-09T01:22:25.984Z,98570.59
2023-04-09T01:25:10.721Z,98566.94
2023-04-09T01:27:56.501Z,98567.81
2023-04-09T01:30:31.815Z,98571.75
2023-04-09T01:33:05.974Z,98563.50
2023-04-09T01:35:39.588Z,98572.66
2023-04-09T01:38:14.029Z,98572.00
2023-04-09T01:40:47.416Z,98574.03
2023-04-09T01:43:21.322Z,98568.34
2023-04-09T01:45:55.977Z,98566.03
2023-04-09T01:48:31.420Z,98568.69
2023-04-09T01:51:05.068Z,98566.28
2023-04-09T01:53:38.219Z,98564.38
2023-04-09T01:56:11.289Z,98562.72
2023-04-09T01:58:44.278Z,98568.84
2023-04-09T02:01:26.216Z,98559.44
2023-04-09T02:04:04.470Z,98569.59
2023-04-09T02:06:43.513Z,98562.72
2023-04-09T02:09:20.018Z,98562.72
2023-04-09T02:11:54.593Z,98570.59
2023-04-09T02:14:30.292Z,98572.41
2023-04-09T02:17:04.780Z,98566.00
2023-04-09T02:19:42.230Z,98567.81
2023-04-09T02:22:16.943Z,98561.06
2023-04-09T02:24:50.038Z,98564.53
2023-04-09T02:27:23.053Z,98562.72
2023-04-09T02:29:56.048Z,98563.25
2023-04-09T02:32:30.465Z,98567.56
2023-04-09T02:35:03.607Z,98559.16
2023-04-09T02:37:36.531Z,98564.38
2023-04-09T02:40:11.268Z,98561.59
2023-04-09T02:42:44.202Z,98564.25
2023-04-09T02:45:17.340Z,98571.75
2023-04-09T02:47:51.668Z,98565.78
2023-04-09T02:50:24.690Z,98565.16
2023-04-09T02:52:57.837Z,98566.94
2023-04-09T02:55:31.020Z,98573.13
2023-04-09T02:58:03.964Z,98567.81
2023-04-09T03:00:36.898Z,98571.00
2023-04-09T03:03:11.367Z,98564.63
2023-04-09T03:05:44.466Z,98568.84
2023-04-09T03:08:17.411Z,98560.47
2023-04-09T03:10:50.469Z,98554.34
2023-04-09T03:13:23.457Z,98554.47
2023-04-09T03:15:56.426Z,98554.47
2023-04-09T03:18:30.748Z,98553.81
2023-04-09T03:21:07.519Z,98552.94
2023-04-09T03:23:40.628Z,98557.28
2023-04-09T03:26:13.614Z,98549.66
2023-04-09T03:28:47.074Z,98544.97
2023-04-09T03:31:20.151Z,98545.47
2023-04-09T03:33:54.443Z,98547.50
2023-04-09T03:36:27.909Z,98550.34
2023-04-09T03:39:01.538Z,98550.56
2023-04-09T03:41:34.614Z,98547.25
2023-04-09T03:44:08.922Z,98540.66
2023-04-09T03:46:41.940Z,98542.66
2023-04-09T03:49:16.303Z,98542.66
2023-04-09T03:51:49.290Z,98538.22
2023-04-09T03:54:22.258Z,98535.56
2023-04-09T03:56:56.260Z,98540.53
2023-04-09T03:59:29.242Z,98536.47
2023-04-09T04:02:02.289Z,98543.94
2023-04-09T04:04:36.718Z,98550.97
2023-04-09T04:07:09.764Z,98547.16
2023-04-09T04:09:42.723Z,98549.94
2023-04-09T04:12:15.777Z,98550.06
2023-04-09T04:14:48.762Z,98554.88
2023-04-09T04:17:21.709Z,98551.59
2023-04-09T04:19:56.457Z,98555.94
2023-04-09T04:22:29.429Z,98554.16
2023-04-09T04:25:02.957Z,98551.88
2023-04-09T04:27:35.981Z,98563.28
2023-04-09T04:30:10.347Z,98560.22
2023-04-09T04:32:43.368Z,98560.84
2023-04-09T04:35:18.083Z,98558.97
2023-04-09T04:37:51.920Z,98562.00
2023-04-09T04:40:25.176Z,98563.66
2023-04-09T04:42:58.206Z,98568.75
2023-04-09T04:45:31.197Z,98572.31
2023-04-09T04:48:04.281Z,98568.13
2023-04-09T04:50:38.612Z,98571.69
2023-04-09T04:53:11.713Z,98565.03
2023-04-09T04:55:44.715Z,98566.84
2023-04-09T04:58:17.870Z,98566.59
2023-04-09T05:00:50.853Z,98569.63
2023-04-09T05:03:25.931Z,98570.16
2023-04-09T05:06:01.734Z,98568.25
2023-04-09T05:08:34.684Z,98580.56
2023-04-09T05:11:07.739Z,98575.13
2023-04-09T05:13:40.649Z,98577.00
2023-04-09T05:16:18.573Z,98580.41
2023-04-09T05:18:51.771Z,98576.59
2023-04-09T05:21:27.557Z,98585.63
2023-04-09T05:24:00.548Z,98585.09
2023-04-09T05:26:33.629Z,98594.75
2023-04-09T05:29:06.593Z,98591.34
2023-04-09T05:31:40.489Z,98593.50
2023-04-09T05:34:13.473Z,98593.13
2023-04-09T05:36:47.744Z,98605.34
2023-04-09T05:39:20.778Z,98597.06
2023-04-09T05:41:54.027Z,98595.94
2023-04-09T05:44:26.978Z,98593.38
2023-04-09T05:46:59.904Z,98592.50
2023-04-09T05:49:32.882Z,98597.38
2023-04-09T05:52:07.477Z,98595.28
2023-04-09T05:54:41.064Z,98593.47
2023-04-09T05:57:14.063Z,98583.53
2023-04-09T05:59:46.984Z,98588.44
2023-04-09T06:02:20.085Z,98591.06
2023-04-09T06:04:53.246Z,98590.13
2023-04-09T06:07:27.602Z,98583.63
2023-04-09T06:10:00.779Z,98580.88
2023-04-09T06:12:35.707Z,98586.81
2023-04-09T06:15:09.478Z,98575.47
2023-04-09T06:17:42.465Z,98585.44
2023-04-09T06:20:15.586Z,98581.59
2023-04-09T06:22:50.042Z,98588.19
2023-04-09T06:25:23.635Z,98582.50
2023-04-09T06:27:56.866Z,98581.78
2023-04-09T06:30:31.805Z,98583.19
2023-04-09T06:33:04.901Z,98592.13
2023-04-09T06:35:38.102Z,98586.13
2023-04-09T06:38:12.414Z,98583.91
2023-04-09T06:40:45.636Z,98589.03
2023-04-09T06:43:18.590Z,98579.41
2023-04-09T06:45:51.633Z,98608.50
2023-04-09T06:48:24.571Z,98609.34
2023-04-09T06:50:57.522Z,98603.19
2023-04-09T06:53:31.878Z,98603.97
2023-04-09T06:56:05.497Z,98609.66
2023-04-09T06:58:38.417Z,98600.25
2023-04-09T07:01:11.493Z,98609.00
2023-04-09T07:03:44.602Z,98608.28
2023-04-09T07:06:17.600Z,98612.59
2023-04-09T07:08:52.236Z,98611.72
2023-04-09T07:11:25.509Z,98608.41
2023-04-09T07:13:58.444Z,98620.38
2023-04-09T07:16:31.457Z,98614.72
2023-04-09T07:19:06.205Z,98614.94
2023-04-09T07:21:39.275Z,98615.25
2023-04-09T07:24:13.533Z,98626.38
2023-04-09T07:26:46.681Z,98623.97
2023-04-09T07:29:20.707Z,98631.50
2023-04-09T07:31:53.780Z,98621.88
2023-04-09T07:34:27.372Z,98625.34
2023-04-09T07:37:00.351Z,98632.88
2023-04-09T07:39:34.794Z,98630.94
2023-04-09T07:42:07.902Z,98632.16
2023-04-09T07:44:41.075Z,98627.56
2023-04-09T07:47:14.189Z,98625.47
2023-04-09T07:49:47.141Z,98633.81
2023-04-09T07:52:20.441Z,98625.75
2023-04-09T07:54:54.784Z,98627.66
2023-04-09T07:57:27.786Z,98630.44
2023-04-09T08:00:01.517Z,98624.31
2023-04-09T08:02:34.541Z,98625.16
2023-04-09T08:05:08.989Z,98627.84
2023-04-09T08:07:42.000Z,98627.59
2023-04-09T08:10:17.075Z,98624.03
2023-04-09T08:12:50.834Z,98617.97
2023-04-09T08:15:23.870Z,98630.53
2023-04-09T08:17:57.155Z,98624.53
2023-04-09T08:20:30.482Z,98630.41
2023-04-09T08:23:03.469Z,98625.53
2023-04-09T08:25:37.798Z,98627.94
2023-04-09T08:28:10.762Z,98635.22
2023-04-09T08:30:44.136Z,98641.06
2023-04-09T08:33:17.830Z,98626.41
2023-04-09T08:35:50.820Z,98631.47
2023-04-09T08:38:23.937Z,98636.25
2023-04-09T08:40:58.293Z,98639.44
2023-04-09T08:43:52.625Z,98641.94
2023-04-09T08:46:27.198Z,98638.56
2023-04-09T08:49:00.224Z,98642.03
2023-04-09T08:51:33.175Z,98645.28
2023-04-09T08:54:06.476Z,98654.16
2023-04-09T08:56:40.806Z,98641.56
2023-04-09T08:59:18.107Z,98651.56
2023-04-09T09:01:54.524Z,98647.59
2023-04-09T09:04:46.169Z,98650.63
2023-04-09T09:07:19.215Z,98648.75
2023-04-09T09:09:54.222Z,98649.78
2023-04-09T09:12:38.186Z,98648.63
2023-04-09T09:15:28.348Z,98645.75
2023-04-09T09:18:01.862Z,98655.09
2023-04-09T09:20:35.104Z,98650.25
2023-04-09T09:23:08.750Z,98646.19
2023-04-09T09:25:43.283Z,98653.09
2023-04-09T09:28:17.636Z,98647.59
2023-04-09T09:30:50.627Z,98646.25
2023-04-09T09:33:23.646Z,98640.50
2023-04-09T09:35:57.872Z,98645.75
2023-04-09T09:38:32.120Z,98644.41
2023-04-09T09:41:18.533Z,98649.22
2023-04-09T09:43:53.414Z,98646.38
2023-04-09T09:46:28.574Z,98637.97
2023-04-09T09:49:01.595Z,98643.16
2023-04-09T09:51:38.166Z,98649.38
2023-04-09T09:54:13.299Z,98636.16
2023-04-09T09:56:47.626Z,98636.50
2023-04-09T09:59:24.136Z,98630.25
2023-04-09T10:02:02.265Z,98630.22
2023-04-09T10:04:36.642Z,98633.78
2023-04-09T10:07:10.169Z,98626.84
2023-04-09T10:09:47.404Z,98629.97
2023-04-09T10:12:24.602Z,98620.34
2023-04-09T10:15:04.294Z,98617.25
2023-04-09T10:17:38.765Z,98617.88
2023-04-09T10:20:17.188Z,98616.69
2023-04-09T10:22:53.614Z,98618.56
2023-04-09T10:25:27.001Z,98610.34
2023-04-09T10:28:01.477Z,98614.13
2023-04-09T10:30:37.340Z,98605.31
2023-04-09T10:33:16.592Z,98609.94
2023-04-09T10:35:49.720Z,98600.69
2023-04-09T10:38:37.356Z,98600.13
2023-04-09T10:41:23.166Z,98604.97
2023-04-09T10:43:56.454Z,98602.78
2023-04-09T10:46:37.046Z,98605.84
2023-04-09T10:49:13.525Z,98604.53
2023-04-09T10:51:52.742Z,98599.28
2023-04-09T10:54:45.881Z,98608.03
2023-04-09T10:57:21.764Z,98593.06
2023-04-09T10:59:56.268Z,98590.53
2023-04-09T11:03:14.177Z,98584.56
2023-04-09T11:05:50.611Z,98583.81
2023-04-09T11:08:23.873Z,98583.72
2023-04-09T11:10:58.471Z,98579.63
2023-04-09T11:13:34.079Z,98576.63
2023-04-09T11:16:07.766Z,98580.91
2023-04-09T11:18:42.456Z,98580.53
2023-04-09T11:21:16.282Z,98570.75
2023-04-09T11:23:53.551Z,98570.47
2023-04-09T11:26:36.303Z,98570.56
2023-04-09T11:29:10.102Z,98574.03
2023-04-09T11:31:46.963Z,98563.28
2023-04-09T11:34:21.281Z,98560.16
2023-04-09T11:36:54.250Z,98567.69
2023-04-09T11:39:27.434Z,98560.47
2023-04-09T11:42:00.778Z,98567.47
2023-04-09T11:44:33.737Z,98566.41
2023-04-09T11:47:07.256Z,98563.03
2023-04-09T11:49:42.269Z,98560.41
2023-04-09T11:52:16.518Z,98566.94
2023-04-09T11:54:50.462Z,98563.44
2023-04-09T11:57:23.381Z,98560.75
2023-04-09T11:59:56.437Z,98565.34
2023-04-09T12:02:31.430Z,98558.72
2023-04-09T12:05:07.130Z,98561.38
2023-04-09T12:07:42.336Z,98555.19
2023-04-09T12:10:19.854Z,98552.06
2023-04-09T12:12:52.810Z,98552.09
2023-04-09T12:15:27.164Z,98546.44
2023-04-09T12:18:00.776Z,98553.19
2023-04-09T12:20:39.406Z,98556.06
2023-04-09T12:23:14.029Z,98552.34
2023-04-09T12:25:47.697Z,98540.63
2023-04-09T12:28:21.031Z,98551.16
2023-04-09T12:30:54.458Z,98547.94
2023-04-09T12:33:27.467Z,98551.88
2023-04-09T12:36:01.917Z,98552.66
2023-04-09T12:38:34.954Z,98556.31
2023-04-09T12:41:08.067Z,98543.50
2023-04-09T12:43:42.757Z,98540.72
2023-04-09T12:46:17.460Z,98545.16
2023-04-09T12:48:50.455Z,98546.53
2023-04-09T12:51:25.383Z,98536.69
2023-04-09T12:53:58.373Z,98545.56
2023-04-09T12:56:31.292Z,98540.41
2023-04-09T12:59:04.247Z,98547.00
2023-04-09T13:01:37.329Z,98539.75
2023-04-09T13:04:10.939Z,98538.72
2023-04-09T13:06:45.345Z,98538.94
2023-04-09T13:09:18.330Z,98537.84
2023-04-09T13:11:51.573Z,98537.59
2023-04-09T13:14:25.875Z,98533.78
2023-04-09T13:16:59.010Z,98527.13
2023-04-09T13:19:32.334Z,98536.47
2023-04-09T13:22:08.712Z,98523.31
2023-04-09T13:24:43.181Z,98527.16
2023-04-09T13:27:16.467Z,98510.66
2023-04-09T13:29:49.454Z,98537.63
2023-04-09T13:32:24.141Z,98509.72
2023-04-09T13:34:57.974Z,98512.19
2023-04-09T13:37:32.319Z,98505.13
2023-04-09T13:40:06.086Z,98496.69
2023-04-09T13:42:39.062Z,98513.50
2023-04-09T13:45:12.341Z,98515.69
2023-04-09T13:47:45.377Z,98514.28
2023-04-09T13:50:18.735Z,98517.69
2023-04-09T13:52:53.009Z,98517.03
2023-04-09T13:55:26.212Z,98507.56
2023-04-09T13:57:59.180Z,98514.25
2023-04-09T14:00:32.590Z,98513.03
2023-04-09T14:03:05.967Z,98510.72
2023-04-09T14:05:38.995Z,98510.97
2023-04-09T14:08:13.295Z,98510.97
2023-04-09T14:10:46.282Z,98511.28
2023-04-09T14:13:19.217Z,98499.47
2023-04-09T14:15:52.216Z,98500.31
2023-04-09T14:18:25.248Z,98496.31
2023-04-09T14:20:58.204Z,98491.25
2023-04-09T14:23:32.501Z,98486.16
2023-04-09T14:26:08.171Z,98476.16
2023-04-09T14:28:41.452Z,98485.63
2023-04-09T14:31:14.935Z,98480.41
2023-04-09T14:33:47.968Z,98481.31
2023-04-09T14:36:21.422Z,98481.03
2023-04-09T14:38:57.804Z,98481.69
2023-04-09T14:41:34.068Z,98480.88
2023-04-09T14:44:07.024Z,98474.13
2023-04-09T14:46:40.006Z,98471.16
2023-04-09T14:49:13.151Z,98464.22
2023-04-09T14:51:46.159Z,98471.34
2023-04-09T14:54:20.463Z,98479.72
2023-04-09T14:56:53.396Z,98475.91
2023-04-09T14:59:26.923Z,98474.38
2023-04-09T15:01:59.963Z,98471.66
2023-04-09T15:04:33.018Z,98463.81
2023-04-09T15:07:06.806Z,98469.72
2023-04-09T15:09:41.586Z,98461.22
2023-04-09T15:12:14.544Z,98462.00
2023-04-09T15:14:47.574Z,98467.38
2023-04-09T15:17:20.624Z,98456.72
2023-04-09T15:19:54.579Z,98455.78
2023-04-09T15:22:27.793Z,98454.84
2023-04-09T15:25:02.089Z,98448.09
2023-04-09T15:27:35.105Z,98448.91
2023-04-09T15:30:09.718Z,98452.06
2023-04-09T15:32:42.763Z,98446.22
2023-04-09T15:35:20.560Z,98444.59
2023-04-09T15:37:53.899Z,98441.66
2023-04-09T15:40:28.999Z,98458.25
2023-04-09T15:43:01.980Z,98454.59
2023-04-09T15:45:34.963Z,98455.63
2023-04-09T15:48:08.126Z,98455.19
2023-04-09T15:50:41.134Z,98454.91
2023-04-09T15:53:14.951Z,98464.13
2023-04-09T15:55:49.411Z,98457.81
2023-04-09T15:58:22.404Z,98460.72
2023-04-09T16:00:55.432Z,98462.84
2023-04-09T16:03:28.411Z,98459.63
2023-04-09T16:06:07.325Z,98455.25
2023-04-09T16:08:40.678Z,98457.78
2023-04-09T16:11:15.539Z,98453.25
2023-04-09T16:13:48.512Z,98455.91
2023-04-09T16:16:21.755Z,98447.81
2023-04-09T16:18:55.024Z,98443.09
2023-04-09T16:21:29.049Z,98449.38
2023-04-09T16:24:02.284Z,98445.63
2023-04-09T16:26:36.615Z,98450.91
2023-04-09T16:29:09.620Z,98448.25
2023-04-09T16:31:42.896Z,98454.22
2023-04-09T16:34:15.917Z,98455.50
2023-04-09T16:36:50.648Z,98451.78
2023-04-09T16:39:23.605Z,98453.84
2023-04-09T16:41:58.264Z,98451.84
2023-04-09T16:44:31.405Z,98456.91
2023-04-09T16:47:04.790Z,98456.16
2023-04-09T16:49:37.765Z,98459.94
2023-04-09T16:52:10.706Z,98450.66
2023-04-09T16:54:43.782Z,98464.06
2023-04-09T16:57:18.080Z,98457.66
2023-04-09T16:59:51.147Z,98451.47
2023-04-09T17:02:24.702Z,98453.09
2023-04-09T17:04:57.987Z,98459.19
2023-04-09T17:07:31.036Z,98462.38
2023-04-09T17:10:04.170Z,98461.06
2023-04-09T17:12:39.257Z,98465.25
2023-04-09T17:15:12.769Z,98461.56
2023-04-09T17:17:46.407Z,98475.38
2023-04-09T17:20:19.648Z,98470.47
2023-04-09T17:22:52.769Z,98468.91
2023-04-09T17:25:25.776Z,98472.81
2023-04-09T17:28:01.543Z,98473.72
2023-04-09T17:30:34.779Z,98476.84
2023-04-09T17:33:07.857Z,98479.91
2023-04-09T17:35:40.898Z,98484.75
2023-04-09T17:38:20.449Z,98490.34
2023-04-09T17:40:54.592Z,98482.63
2023-04-09T17:43:28.966Z,98480.06
2023-04-09T17:46:02.812Z,98493.88
2023-04-09T17:48:37.480Z,98490.94
2023-04-09T17:51:16.395Z,98494.03
2023-04-09T17:53:49.379Z,98490.94
2023-04-09T17:56:23.515Z,98491.75
2023-04-09T17:58:57.842Z,98494.66
2023-04-09T18:01:31.051Z,98494.88
2023-04-09T18:04:04.408Z,98492.75
2023-04-09T18:06:37.720Z,98489.44
2023-04-09T18:09:10.933Z,98509.28
2023-04-09T18:11:44.092Z,98505.22
2023-04-09T18:14:18.466Z,98503.84
2023-04-09T18:16:51.750Z,98507.44
2023-04-09T18:19:25.403Z,98511.03
2023-04-09T18:21:58.397Z,98514.91
2023-04-09T18:24:33.537Z,98525.44
2023-04-09T18:27:06.678Z,98520.81
2023-04-09T18:29:41.508Z,98526.31
2023-04-09T18:32:14.677Z,98532.75
2023-04-09T18:34:47.856Z,98530.88
2023-04-09T18:37:22.061Z,98532.63
2023-04-09T18:39:55.248Z,98540.28
2023-04-09T18:42:28.332Z,98541.06
2023-04-09T18:45:02.812Z,98541.81
2023-04-09T18:47:37.153Z,98535.88
2023-04-09T18:50:12.418Z,98545.31
2023-04-09T18:52:45.682Z,98537.56
2023-04-09T18:55:19.210Z,98543.09
2023-04-09T18:57:52.634Z,98541.81
2023-04-09T19:00:27.182Z,98548.91
2023-04-09T19:03:00.510Z,98566.06
2023-04-09T19:05:34.140Z,98569.53
2023-04-09T19:08:07.817Z,98578.56
2023-04-09T19:10:42.252Z,98575.03
2023-04-09T19:13:15.407Z,98583.47
2023-04-09T19:15:49.803Z,98580.19
2023-04-09T19:18:22.826Z,98582.81
2023-04-09T19:20:55.862Z,98584.38
2023-04-09T19:23:29.826Z,98589.38
2023-04-09T19:26:03.884Z,98582.91
2023-04-09T19:28:37.647Z,98582.38
2023-04-09T19:31:14.288Z,98584.34
2023-04-09T19:33:47.407Z,98584.84
2023-04-09T19:36:20.812Z,98583.44
2023-04-09T19:38:54.033Z,98587.81
2023-04-09T19:41:27.301Z,98587.16
2023-04-09T19:44:01.206Z,98600.97
2023-04-09T19:46:35.753Z,98595.31
2023-04-09T19:49:08.701Z,98596.41
2023-04-09T19:51:41.802Z,98602.44
2023-04-09T19:54:16.503Z,98594.09
2023-04-09T19:56:49.660Z,98593.63
2023-04-09T19:59:22.561Z,98598.09
2023-04-09T20:01:57.283Z,98596.53
2023-04-09T20:04:30.944Z,98594.81
2023-04-09T20:07:04.649Z,98593.09
2023-04-09T20:09:41.270Z,98597.66
2023-04-09T20:12:14.348Z,98599.13
2023-04-09T20:14:49.335Z,98590.72
2023-04-09T20:17:23.782Z,98601.53
2023-04-09T20:19:56.733Z,98606.25
2023-04-09T20:22:30.141Z,98598.03
2023-04-09T20:25:03.177Z,98599.53
2023-04-09T20:27:37.549Z,98596.38
2023-04-09T20:30:11.502Z,98591.97
2023-04-09T20:32:45.949Z,98592.69
2023-04-09T20:35:19.413Z,98589.81
2023-04-09T20:37:54.310Z,98598.81
2023-04-09T20:40:27.320Z,98605.69
2023-04-09T20:43:00.570Z,98595.03
2023-04-09T20:45:33.702Z,98598.34
2023-04-09T20:48:08.276Z,98598.84
2023-04-09T20:50:41.318Z,98589.06
2023-04-09T20:53:15.248Z,98589.94
2023-04-09T20:55:48.217Z,98596.06
2023-04-09T20:58:21.264Z,98592.75
2023-04-09T21:01:03.713Z,98600.13
2023-04-09T21:03:40.180Z,98596.56
2023-04-09T21:06:13.374Z,98599.38
2023-04-09T21:08:46.348Z,98595.53
2023-04-09T21:11:19.309Z,98600.88
2023-04-09T21:13:55.117Z,98600.88
2023-04-09T21:16:29.791Z,98604.97
2023-04-09T21:19:07.072Z,98608.38
2023-04-09T21:21:40.399Z,98603.03
2023-04-09T21:24:13.459Z,98606.72
2023-04-09T21:26:51.665Z,98599.25
2023-04-09T21:29:25.362Z,98605.69
2023-04-09T21:31:58.376Z,98604.94
2023-04-09T21:34:32.785Z,98598.09
2023-04-09T21:37:05.749Z,98601.13
2023-04-09T21:39:38.768Z,98599.31
2023-04-09T21:42:12.006Z,98600.31
2023-04-09T21:44:45.023Z,98597.66
2023-04-09T21:47:18.103Z,98606.41
2023-04-09T21:49:52.397Z,98603.16
2023-04-09T21:52:25.451Z,98596.94
2023-04-09T21:54:58.392Z,98603.00
2023-04-09T21:57:31.445Z,98613.44
2023-04-09T22:00:05.448Z,98608.31
2023-04-09T22:02:39.638Z,98613.66
2023-04-09T22:05:14.387Z,98616.56
2023-04-09T22:07:47.344Z,98611.75
2023-04-09T22:10:20.540Z,98605.66
2023-04-09T22:12:53.518Z,98601.56
2023-04-09T22:15:26.711Z,98606.63
2023-04-09T22:17:59.775Z,98602.53
2023-04-09T22:20:34.130Z,98603.56
2023-04-09T22:23:08.595Z,98604.09
2023-04-09T22:25:41.541Z,98602.75
2023-04-09T22:28:14.751Z,98612.34
2023-04-09T22:30:47.826Z,98606.03
2023-04-09T22:33:20.978Z,98607.00
2023-04-09T22:35:56.142Z,98607.81
2023-04-09T22:38:29.242Z,98602.56
2023-04-09T22:41:02.369Z,98598.72
2023-04-09T22:43:35.377Z,98599.09
2023-04-09T22:46:08.481Z,98604.31
2023-04-09T22:48:44.895Z,98600.75
2023-04-09T22:51:19.588Z,98593.25
2023-04-09T22:53:52.549Z,98591.16
2023-04-09T22:56:25.547Z,98585.63
2023-04-09T22:58:58.516Z,98582.34
2023-04-09T23:01:32.516Z,98582.13
2023-04-09T23:04:05.823Z,98578.44
2023-04-09T23:06:40.501Z,98579.94
2023-04-09T23:09:13.465Z,98581.94
2023-04-09T23:11:46.414Z,98579.94
2023-04-09T23:14:19.471Z,98576.94
2023-04-09T23:16:52.440Z,98576.38
2023-04-09T23:19:25.455Z,98578.41
2023-04-09T23:21:59.758Z,98576.22
2023-04-09T23:24:32.745Z,98569.47
2023-04-09T23:27:05.762Z,98574.94
2023-04-09T23:29:38.719Z,98573.19
2023-04-09T23:32:11.697Z,98574.66
2023-04-09T23:34:44.647Z,98570.09
2023-04-09T23:37:19.883Z,98562.34
2023-04-09T23:39:52.885Z,98566.38
2023-04-09T23:42:26.219Z,98565.16
2023-04-09T23:45:03.282Z,98563.22
2023-04-09T23:47:37.555Z,98568.50
2023-04-09T23:50:11.527Z,98562.19
2023-04-09T23:52:49.743Z,98564.72
2023-04-09T23:55:22.881Z,98566.31
2023-04-09T23:57:56.524Z,98556.19
